createdAt,value
2018-11-28T00:01:44.102Z,16.60
2018-11-28T00:04:11.576Z,15.37
2018-11-28T00:06:38.998Z,14.87
2018-11-28T00:09:06.436Z,15.13
2018-11-28T00:11:33.822Z,13.03
2018-11-28T00:14:01.290Z,13.97
2018-11-28T00:16:28.950Z,15.83
2018-11-28T00:18:56.820Z,15.73
2018-11-28T00:21:24.599Z,14.50
2018-11-28T00:23:52.121Z,17.50
2018-11-28T00:26:19.599Z,14.63
2018-11-28T00:28:46.921Z,17.27
2018-11-28T00:31:14.471Z,15.63
2018-11-28T00:33:42.315Z,13.47
2018-11-28T00:36:10.819Z,14.13
2018-11-28T00:38:38.205Z,15.17
2018-11-28T00:41:05.648Z,14.53
2018-11-28T00:43:33.167Z,12.60
2018-11-28T00:46:01.178Z,15.80
2018-11-28T00:48:28.661Z,12.63
2018-11-28T00:50:56.051Z,13.00
2018-11-28T00:53:23.337Z,11.70
2018-11-28T00:55:50.695Z,11.73
2018-11-28T00:58:18.125Z,13.40
2018-11-28T01:00:45.522Z,13.43
2018-11-28T01:03:12.760Z,11.43
2018-11-28T01:05:40.252Z,12.30
2018-11-28T01:08:07.728Z,14.17
2018-11-28T01:10:35.256Z,11.40
2018-11-28T01:13:02.708Z,11.27
2018-11-28T01:15:30.468Z,9.43
2018-11-28T01:17:57.844Z,11.73
2018-11-28T01:20:25.330Z,11.17
2018-11-28T01:22:52.759Z,11.23
2018-11-28T01:25:20.225Z,14.47
2018-11-28T01:27:47.611Z,9.67
2018-11-28T01:30:15.173Z,13.03
2018-11-28T01:32:42.564Z,10.70
2018-11-28T01:35:09.970Z,11.53
2018-11-28T01:37:38.022Z,11.80
2018-11-28T01:40:05.487Z,10.83
2018-11-28T01:42:32.910Z,11.20
2018-11-28T01:45:00.230Z,10.63
2018-11-28T01:47:27.686Z,10.17
2018-11-28T01:49:55.056Z,11.80
2018-11-28T01:52:22.436Z,8.90
2018-11-28T01:54:49.944Z,11.33
2018-11-28T01:57:17.257Z,9.47
2018-11-28T01:59:45.076Z,12.43
2018-11-28T02:02:12.648Z,12.10
2018-11-28T02:04:40.086Z,11.23
2018-11-28T02:07:07.480Z,9.97
2018-11-28T02:09:34.857Z,9.27
2018-11-28T02:12:02.176Z,11.73
2018-11-28T02:14:29.815Z,9.77
2018-11-28T02:16:57.009Z,10.97
2018-11-28T02:19:24.287Z,7.00
2018-11-28T02:21:51.719Z,8.40
2018-11-28T02:24:19.544Z,9.27
2018-11-28T02:26:47.047Z,9.30
2018-11-28T02:29:14.648Z,7.23
2018-11-28T02:31:42.045Z,7.33
2018-11-28T02:34:09.341Z,9.80
2018-11-28T02:36:36.705Z,9.00
2018-11-28T02:39:04.526Z,7.30
2018-11-28T02:41:31.927Z,8.50
2018-11-28T02:43:59.339Z,8.33
2018-11-28T02:46:27.200Z,7.43
2018-11-28T02:48:54.868Z,8.70
2018-11-28T02:51:22.633Z,7.33
2018-11-28T02:53:49.995Z,6.73
2018-11-28T02:56:17.399Z,5.93
2018-11-28T02:58:45.013Z,6.93
2018-11-28T03:01:12.619Z,8.53
2018-11-28T03:03:40.135Z,6.97
2018-11-28T03:06:07.661Z,7.47
2018-11-28T03:08:35.237Z,8.17
2018-11-28T03:11:02.563Z,7.47
2018-11-28T03:13:30.146Z,6.30
2018-11-28T03:16:01.200Z,5.87
2018-11-28T03:18:29.679Z,9.40
2018-11-28T03:20:57.069Z,7.93
2018-11-28T03:23:24.490Z,4.10
2018-11-28T03:25:52.194Z,6.47
2018-11-28T03:28:19.597Z,6.93
2018-11-28T03:30:47.001Z,5.10
2018-11-28T03:33:14.676Z,5.83
2018-11-28T03:35:42.057Z,10.80
2018-11-28T03:38:09.516Z,7.23
2018-11-28T03:40:36.990Z,7.27
2018-11-28T03:43:04.508Z,7.37
2018-11-28T03:45:32.036Z,7.47
2018-11-28T03:47:59.346Z,4.90
2018-11-28T03:50:27.050Z,7.13
2018-11-28T03:52:54.945Z,5.63
2018-11-28T03:55:22.274Z,5.33
2018-11-28T03:57:50.377Z,7.30
2018-11-28T04:00:18.389Z,7.70
2018-11-28T04:02:45.693Z,4.97
2018-11-28T04:05:13.100Z,5.57
2018-11-28T04:07:40.698Z,7.83
2018-11-28T04:10:08.126Z,5.10
2018-11-28T04:12:35.790Z,7.70
2018-11-28T04:15:03.626Z,4.70
2018-11-28T04:17:30.987Z,4.67
2018-11-28T04:19:58.394Z,5.40
2018-11-28T04:22:25.877Z,6.00
2018-11-28T04:24:53.742Z,5.77
2018-11-28T04:27:21.423Z,6.03
2018-11-28T04:29:48.964Z,6.30
2018-11-28T04:32:16.626Z,7.60
2018-11-28T04:34:44.523Z,6.60
2018-11-28T04:37:11.769Z,5.40
2018-11-28T04:39:39.001Z,4.10
2018-11-28T04:42:06.404Z,5.33
2018-11-28T04:44:33.705Z,7.30
2018-11-28T04:47:00.970Z,5.10
2018-11-28T04:49:28.845Z,5.13
2018-11-28T04:51:56.146Z,5.10
2018-11-28T04:54:24.128Z,5.10
2018-11-28T04:56:51.441Z,7.40
2018-11-28T04:59:18.834Z,5.17
2018-11-28T05:01:46.507Z,5.97
2018-11-28T05:04:13.785Z,4.17
2018-11-28T05:06:41.607Z,4.87
2018-11-28T05:09:09.343Z,5.80
2018-11-28T05:11:36.668Z,4.33
2018-11-28T05:14:03.911Z,5.50
2018-11-28T05:16:31.367Z,7.67
2018-11-28T05:18:58.705Z,3.77
2018-11-28T05:21:26.541Z,4.93
2018-11-28T05:23:53.974Z,5.80
2018-11-28T05:26:21.661Z,5.03
2018-11-28T05:28:49.177Z,5.50
2018-11-28T05:31:17.243Z,6.80
2018-11-28T05:33:44.905Z,3.70
2018-11-28T05:36:14.356Z,4.87
2018-11-28T05:38:42.709Z,3.93
2018-11-28T05:41:10.147Z,4.97
2018-11-28T05:43:37.842Z,5.10
2018-11-28T05:46:06.041Z,5.57
2018-11-28T05:48:34.218Z,5.23
2018-11-28T05:51:01.616Z,4.60
2018-11-28T05:53:29.203Z,6.67
2018-11-28T05:55:57.196Z,5.87
2018-11-28T05:58:24.612Z,6.97
2018-11-28T06:00:52.255Z,5.07
2018-11-28T06:03:19.811Z,4.87
2018-11-28T06:05:47.968Z,4.43
2018-11-28T06:08:15.329Z,6.53
2018-11-28T06:10:42.983Z,5.17
2018-11-28T06:13:10.388Z,4.90
2018-11-28T06:15:37.792Z,6.23
2018-11-28T06:18:05.687Z,4.50
2018-11-28T06:20:32.975Z,3.87
2018-11-28T06:23:00.344Z,6.27
2018-11-28T06:25:27.818Z,4.77
2018-11-28T06:27:55.224Z,4.87
2018-11-28T06:30:22.854Z,5.23
2018-11-28T06:32:51.524Z,2.60
2018-11-28T06:35:19.134Z,4.97
2018-11-28T06:37:47.789Z,7.50
2018-11-28T06:40:15.700Z,9.10
2018-11-28T06:42:43.308Z,6.67
2018-11-28T06:45:10.724Z,4.23
2018-11-28T06:47:38.126Z,6.67
2018-11-28T06:50:05.556Z,7.13
2018-11-28T06:52:32.930Z,4.47
2018-11-28T06:55:00.499Z,6.83
2018-11-28T06:57:27.787Z,4.13
2018-11-28T06:59:55.306Z,6.67
2018-11-28T07:02:22.733Z,5.20
2018-11-28T07:04:50.426Z,5.60
2018-11-28T07:07:17.796Z,5.23
2018-11-28T07:09:45.729Z,4.53
2018-11-28T07:12:13.388Z,5.40
2018-11-28T07:14:43.322Z,4.50
2018-11-28T07:17:12.445Z,5.97
2018-11-28T07:19:39.801Z,4.23
2018-11-28T07:22:07.222Z,4.23
2018-11-28T07:24:34.958Z,6.63
2018-11-28T07:27:03.243Z,3.57
2018-11-28T07:29:31.161Z,5.13
2018-11-28T07:31:58.604Z,4.90
2018-11-28T07:34:26.041Z,5.60
2018-11-28T07:36:53.380Z,5.20
2018-11-28T07:39:20.920Z,3.47
2018-11-28T07:41:48.439Z,4.80
2018-11-28T07:44:16.204Z,4.00
2018-11-28T07:46:43.745Z,4.87
2018-11-28T07:49:11.210Z,4.10
2018-11-28T07:51:39.502Z,5.40
2018-11-28T07:54:06.854Z,4.67
2018-11-28T07:56:34.242Z,4.50
2018-11-28T07:59:01.741Z,4.80
2018-11-28T08:01:29.198Z,3.63
2018-11-28T08:03:56.664Z,4.93
2018-11-28T08:06:25.200Z,4.37
2018-11-28T08:08:57.815Z,4.10
2018-11-28T08:11:30.344Z,4.30
2018-11-28T08:13:59.467Z,3.60
2018-11-28T08:16:27.103Z,5.23
2018-11-28T08:18:56.359Z,3.73
2018-11-28T08:21:24.097Z,3.57
2018-11-28T08:23:51.505Z,3.10
2018-11-28T08:26:19.027Z,4.17
2018-11-28T08:28:46.701Z,4.30
2018-11-28T08:31:14.229Z,4.53
2018-11-28T08:33:41.785Z,3.37
2018-11-28T08:36:09.673Z,4.77
2018-11-28T08:38:37.241Z,3.73
2018-11-28T08:41:05.132Z,3.10
2018-11-28T08:43:32.663Z,3.23
2018-11-28T08:46:00.273Z,2.60
2018-11-28T08:48:27.719Z,3.57
2018-11-28T08:50:55.151Z,3.40
2018-11-28T08:53:22.870Z,2.83
2018-11-28T08:55:50.353Z,2.93
2018-11-28T08:58:18.088Z,3.57
2018-11-28T09:00:45.466Z,2.40
2018-11-28T09:03:12.945Z,4.00
2018-11-28T09:05:40.626Z,4.27
2018-11-28T09:08:08.047Z,4.43
2018-11-28T09:10:35.521Z,5.17
2018-11-28T09:13:04.344Z,2.80
2018-11-28T09:15:31.355Z,3.13
2018-11-28T09:17:58.931Z,3.30
2018-11-28T09:23:36.804Z,3.67
2018-11-28T09:26:04.112Z,3.27
2018-11-28T09:28:31.567Z,3.47
2018-11-28T09:31:00.420Z,2.33
2018-11-28T09:33:27.808Z,3.93
2018-11-28T09:35:55.150Z,2.33
2018-11-28T09:38:22.421Z,3.27
2018-11-28T09:40:49.780Z,2.73
2018-11-28T09:43:17.239Z,3.00
2018-11-28T09:45:45.073Z,3.37
2018-11-28T09:48:12.630Z,4.70
2018-11-28T09:50:40.086Z,4.50
2018-11-28T09:53:07.519Z,3.10
2018-11-28T09:55:35.603Z,2.27
2018-11-28T09:58:03.054Z,3.10
2018-11-28T10:00:30.423Z,2.93
2018-11-28T10:02:57.753Z,3.23
2018-11-28T10:05:25.390Z,3.23
2018-11-28T10:07:52.785Z,4.47
2018-11-28T10:10:20.234Z,3.67
2018-11-28T10:12:48.024Z,2.77
2018-11-28T10:15:15.473Z,2.30
2018-11-28T10:17:43.135Z,2.77
2018-11-28T10:20:10.586Z,2.77
2018-11-28T10:22:38.326Z,3.40
2018-11-28T10:25:05.702Z,3.83
2018-11-28T10:27:33.268Z,3.47
2018-11-28T10:30:00.858Z,2.20
2018-11-28T10:32:29.248Z,3.07
2018-11-28T10:34:56.765Z,2.43
2018-11-28T10:37:24.528Z,3.80
2018-11-28T10:39:51.939Z,2.53
2018-11-28T10:42:19.308Z,3.17
2018-11-28T10:44:46.936Z,3.30
2018-11-28T10:47:14.676Z,2.00
2018-11-28T10:49:42.120Z,2.67
2018-11-28T10:52:09.777Z,2.77
2018-11-28T10:54:37.786Z,3.30
2018-11-28T10:57:05.130Z,3.67
2018-11-28T10:59:32.588Z,2.80
2018-11-28T11:02:17.618Z,1.70
2018-11-28T11:05:02.847Z,3.37
2018-11-28T11:07:47.938Z,2.40
2018-11-28T11:10:33.231Z,2.70
2018-11-28T11:13:18.775Z,5.33
2018-11-28T11:15:56.280Z,2.50
2018-11-28T11:18:23.674Z,2.27
2018-11-28T11:20:50.973Z,2.20
2018-11-28T11:23:18.524Z,2.90
2018-11-28T11:25:46.319Z,3.23
2018-11-28T11:28:14.218Z,2.83
2018-11-28T11:30:41.936Z,2.37
2018-11-28T11:33:10.144Z,3.27
2018-11-28T11:35:37.464Z,2.87
2018-11-28T11:38:05.345Z,2.67
2018-11-28T11:40:32.744Z,3.27
2018-11-28T11:43:00.216Z,2.10
2018-11-28T11:45:28.043Z,2.23
2018-11-28T11:47:55.651Z,3.23
2018-11-28T11:50:23.218Z,3.73
2018-11-28T11:52:50.615Z,2.37
2018-11-28T11:55:18.369Z,2.20
2018-11-28T11:57:45.757Z,2.07
2018-11-28T12:00:15.148Z,2.60
2018-11-28T12:02:42.546Z,2.03
2018-11-28T12:05:10.238Z,2.80
2018-11-28T12:07:38.114Z,4.37
2018-11-28T12:10:08.907Z,2.83
2018-11-28T12:12:33.716Z,2.17
2018-11-28T12:15:01.868Z,2.20
2018-11-28T12:17:29.633Z,3.83
2018-11-28T12:19:57.058Z,2.40
2018-11-28T12:22:24.439Z,2.03
2018-11-28T12:24:51.869Z,2.23
2018-11-28T12:27:19.430Z,2.00
2018-11-28T12:29:46.855Z,2.67
2018-11-28T12:32:14.258Z,2.30
2018-11-28T12:34:41.651Z,1.60
2018-11-28T12:37:09.064Z,3.10
2018-11-28T12:39:37.076Z,2.33
2018-11-28T12:42:04.922Z,2.80
2018-11-28T12:44:32.528Z,1.97
2018-11-28T12:47:00.124Z,1.93
2018-11-28T12:49:27.605Z,2.10
2018-11-28T12:51:54.948Z,2.70
2018-11-28T12:54:22.532Z,1.70
2018-11-28T12:56:50.037Z,1.97
2018-11-28T12:59:17.436Z,2.93
2018-11-28T13:01:44.912Z,2.00
2018-11-28T13:04:12.444Z,3.20
2018-11-28T13:06:40.547Z,2.03
2018-11-28T13:09:08.047Z,1.60
2018-11-28T13:11:35.332Z,2.40
2018-11-28T13:14:02.814Z,2.93
2018-11-28T13:16:30.300Z,2.07
2018-11-28T13:18:57.704Z,1.93
2018-11-28T13:21:25.295Z,1.57
2018-11-28T13:23:52.646Z,3.03
2018-11-28T13:26:20.094Z,2.30
2018-11-28T13:28:47.532Z,2.03
2018-11-28T13:31:14.855Z,2.67
2018-11-28T13:33:42.237Z,1.80
2018-11-28T13:36:09.637Z,2.63
2018-11-28T13:38:37.623Z,1.90
2018-11-28T13:41:05.483Z,1.63
2018-11-28T13:43:33.165Z,5.80
2018-11-28T13:46:00.776Z,1.67
2018-11-28T13:48:28.160Z,2.13
2018-11-28T13:50:55.584Z,1.70
2018-11-28T13:53:22.984Z,1.83
2018-11-28T13:56:30.113Z,2.07
2018-11-28T13:58:18.886Z,3.10
2018-11-28T14:00:46.232Z,2.13
2018-11-28T14:03:13.967Z,2.57
2018-11-28T14:05:41.273Z,3.10
2018-11-28T14:08:08.594Z,2.43
2018-11-28T14:10:36.095Z,2.00
2018-11-28T14:13:03.570Z,4.10
2018-11-28T14:15:31.077Z,1.80
2018-11-28T14:17:58.468Z,1.80
2018-11-28T14:20:25.778Z,2.47
2018-11-28T14:22:53.268Z,3.33
2018-11-28T14:25:21.084Z,2.93
2018-11-28T14:27:48.858Z,2.20
2018-11-28T14:30:16.526Z,2.57
2018-11-28T14:32:44.119Z,2.67
2018-11-28T14:35:11.512Z,2.23
2018-11-28T14:37:38.924Z,3.43
2018-11-28T14:40:06.316Z,2.67
2018-11-28T14:42:33.690Z,5.47
2018-11-28T14:45:01.427Z,3.40
2018-11-28T14:47:28.924Z,4.43
2018-11-28T14:49:56.194Z,2.80
2018-11-28T14:52:23.610Z,3.27
2018-11-28T14:54:50.989Z,2.97
2018-11-28T14:57:18.254Z,3.27
2018-11-28T14:59:46.210Z,2.90
2018-11-28T15:02:13.740Z,2.80
2018-11-28T15:04:41.054Z,2.87
2018-11-28T15:07:08.525Z,3.03
2018-11-28T15:09:58.568Z,3.63
2018-11-28T15:12:26.064Z,4.07
2018-11-28T15:14:53.800Z,3.53
2018-11-28T15:17:21.236Z,2.70
2018-11-28T15:19:48.650Z,3.87
2018-11-28T15:22:16.235Z,3.70
2018-11-28T15:24:43.971Z,5.47
2018-11-28T15:27:11.676Z,5.30
2018-11-28T15:29:39.102Z,3.80
2018-11-28T15:32:06.530Z,4.20
2018-11-28T15:34:34.000Z,5.40
2018-11-28T15:37:01.339Z,2.50
2018-11-28T15:39:30.082Z,4.40
2018-11-28T15:41:57.388Z,5.33
2018-11-28T15:44:24.727Z,3.50
2018-11-28T15:46:52.327Z,3.90
2018-11-28T15:49:19.793Z,4.40
2018-11-28T15:51:47.333Z,3.97
2018-11-28T15:54:14.792Z,5.57
2018-11-28T15:56:42.371Z,5.53
2018-11-28T15:59:09.646Z,4.53
2018-11-28T16:01:37.133Z,5.67
2018-11-28T16:04:04.726Z,4.27
2018-11-28T16:06:32.124Z,5.07
2018-11-28T16:08:59.693Z,6.63
2018-11-28T16:11:26.995Z,7.73
2018-11-28T16:13:54.373Z,5.17
2018-11-28T16:16:22.361Z,5.77
2018-11-28T16:18:50.131Z,4.80
2018-11-28T16:21:17.503Z,5.97
2018-11-28T16:23:45.167Z,5.07
2018-11-28T16:26:13.576Z,5.73
2018-11-28T16:28:40.914Z,5.50
2018-11-28T16:31:08.511Z,4.60
2018-11-28T16:33:35.953Z,5.10
2018-11-28T16:36:03.724Z,5.17
2018-11-28T16:38:30.984Z,7.43
2018-11-28T16:40:58.729Z,6.20
2018-11-28T16:43:26.054Z,5.43
2018-11-28T16:45:53.288Z,5.17
2018-11-28T16:48:20.800Z,5.27
2018-11-28T16:50:48.234Z,6.37
2018-11-28T16:53:15.574Z,7.03
2018-11-28T16:55:42.905Z,5.90
2018-11-28T16:58:10.189Z,8.07
2018-11-28T17:00:38.120Z,6.00
2018-11-28T17:03:05.603Z,6.20
2018-11-28T17:05:32.990Z,5.83
2018-11-28T17:08:00.765Z,5.77
2018-11-28T17:10:28.047Z,5.37
2018-11-28T17:12:55.363Z,6.73
2018-11-28T17:15:23.143Z,6.27
2018-11-28T17:17:50.472Z,7.83
2018-11-28T17:20:17.871Z,7.73
2018-11-28T17:22:45.581Z,7.33
2018-11-28T17:25:13.166Z,5.60
2018-11-28T17:27:40.967Z,5.40
2018-11-28T17:30:08.309Z,5.77
2018-11-28T17:32:35.795Z,6.27
2018-11-28T17:35:03.213Z,5.90
2018-11-28T17:37:30.674Z,6.00
2018-11-28T17:39:58.020Z,5.83
2018-11-28T17:42:25.245Z,6.83
2018-11-28T17:44:52.510Z,5.77
2018-11-28T17:47:19.725Z,13.20
2018-11-28T17:49:47.095Z,6.53
2018-11-28T17:52:14.348Z,6.20
2018-11-28T17:54:42.164Z,7.87
2018-11-28T17:57:09.488Z,8.07
2018-11-28T17:59:36.817Z,7.53
2018-11-28T18:02:04.268Z,7.10
2018-11-28T18:04:31.851Z,9.17
2018-11-28T18:06:59.670Z,8.13
2018-11-28T18:09:27.136Z,7.40
2018-11-28T18:11:54.550Z,6.07
2018-11-28T18:14:21.911Z,5.00
2018-11-28T18:16:49.622Z,6.13
2018-11-28T18:19:17.261Z,8.60
2018-11-28T18:21:44.738Z,7.10
2018-11-28T18:24:12.506Z,5.17
2018-11-28T18:26:39.845Z,6.10
2018-11-28T18:29:07.507Z,7.50
2018-11-28T18:31:34.893Z,9.83
2018-11-28T18:34:02.296Z,7.77
2018-11-28T18:36:29.645Z,5.70
2018-11-28T18:38:57.141Z,6.17
2018-11-28T18:41:24.385Z,8.60
2018-11-28T18:43:51.826Z,5.93
2018-11-28T18:46:19.211Z,5.83
2018-11-28T18:48:46.840Z,11.17
2018-11-28T18:51:14.253Z,5.17
2018-11-28T18:53:41.863Z,8.90
2018-11-28T18:56:09.473Z,7.10
2018-11-28T18:58:36.684Z,7.97
2018-11-28T19:01:04.567Z,6.23
2018-11-28T19:03:32.145Z,8.30
2018-11-28T19:05:59.896Z,9.10
2018-11-28T19:08:27.671Z,8.70
2018-11-28T19:10:55.208Z,7.03
2018-11-28T19:13:22.519Z,9.73
2018-11-28T19:15:49.903Z,5.77
2018-11-28T19:18:17.254Z,6.63
2018-11-28T19:20:45.048Z,6.27
2018-11-28T19:23:12.331Z,11.00
2018-11-28T19:25:39.931Z,8.83
2018-11-28T19:28:07.496Z,6.67
2018-11-28T19:30:34.905Z,5.83
2018-11-28T19:33:02.168Z,5.43
2018-11-28T19:35:29.781Z,4.50
2018-11-28T19:37:57.142Z,6.73
2018-11-28T19:40:24.558Z,4.57
2018-11-28T19:42:52.482Z,4.30
2018-11-28T19:45:20.223Z,5.13
2018-11-28T19:47:47.675Z,4.13
2018-11-28T19:50:15.100Z,6.70
2018-11-28T19:52:42.988Z,4.43
2018-11-28T19:55:10.409Z,4.50
2018-11-28T19:57:37.739Z,5.87
2018-11-28T20:00:05.396Z,4.67
2018-11-28T20:02:32.830Z,5.30
2018-11-28T20:05:00.066Z,7.53
2018-11-28T20:07:27.616Z,6.20
2018-11-28T20:09:57.764Z,7.80
2018-11-28T20:12:25.596Z,8.20
2018-11-28T20:14:52.913Z,4.70
2018-11-28T20:17:20.614Z,4.60
2018-11-28T20:19:47.965Z,4.73
2018-11-28T20:22:15.329Z,4.00
2018-11-28T20:24:42.639Z,3.53
2018-11-28T20:27:10.217Z,3.93
2018-11-28T20:29:37.447Z,4.17
2018-11-28T20:32:05.237Z,7.17
2018-11-28T20:34:33.547Z,4.33
2018-11-28T20:37:01.254Z,4.27
2018-11-28T20:39:28.967Z,4.53
2018-11-28T20:41:56.365Z,4.47
2018-11-28T20:44:23.863Z,5.13
2018-11-28T20:46:51.651Z,7.57
2018-11-28T20:49:18.987Z,3.33
2018-11-28T20:51:46.415Z,7.30
2018-11-28T20:54:13.837Z,3.87
2018-11-28T20:56:41.816Z,6.23
2018-11-28T20:59:09.223Z,3.93
2018-11-28T21:01:37.565Z,4.77
2018-11-28T21:04:05.059Z,4.23
2018-11-28T21:06:32.437Z,5.03
2018-11-28T21:08:59.966Z,4.60
2018-11-28T21:11:27.701Z,6.10
2018-11-28T21:13:55.086Z,4.33
2018-11-28T21:16:22.562Z,5.17
2018-11-28T21:18:49.974Z,2.87
2018-11-28T21:21:17.468Z,3.80
2018-11-28T21:23:45.182Z,3.13
2018-11-28T21:26:12.556Z,3.80
2018-11-28T21:28:40.336Z,4.30
2018-11-28T21:31:07.734Z,3.93
2018-11-28T21:33:35.046Z,4.80
2018-11-28T21:36:02.958Z,3.67
2018-11-28T21:38:30.208Z,7.10
2018-11-28T21:40:57.550Z,3.43
2018-11-28T21:43:25.608Z,4.30
2018-11-28T21:45:53.019Z,4.47
2018-11-28T21:48:20.386Z,5.90
2018-11-28T21:50:48.250Z,3.73
2018-11-28T21:53:15.544Z,7.47
2018-11-28T21:55:42.920Z,4.90
2018-11-28T21:58:10.439Z,5.07
2018-11-28T22:00:38.450Z,3.73
2018-11-28T22:03:05.866Z,4.67
2018-11-28T22:05:33.184Z,9.60
2018-11-28T22:08:00.594Z,3.90
2018-11-28T22:10:27.968Z,5.10
2018-11-28T22:12:55.391Z,4.33
2018-11-28T22:15:22.764Z,5.40
2018-11-28T22:17:50.017Z,6.53
2018-11-28T22:20:17.337Z,4.33
2018-11-28T22:22:45.572Z,4.17
2018-11-28T22:25:12.943Z,5.77
2018-11-28T22:27:40.272Z,4.73
2018-11-28T22:30:07.898Z,4.37
2018-11-28T22:32:35.875Z,4.53
2018-11-28T22:35:03.424Z,2.90
2018-11-28T22:37:30.687Z,3.87
2018-11-28T22:39:58.097Z,3.60
2018-11-28T22:42:25.314Z,2.80
2018-11-28T22:44:52.766Z,4.23
2018-11-28T22:47:20.177Z,7.50
2018-11-28T22:49:47.553Z,3.27
2018-11-28T22:52:15.250Z,4.30
2018-11-28T22:54:42.981Z,3.50
2018-11-28T22:57:10.280Z,3.97
2018-11-28T22:59:38.052Z,4.17
2018-11-28T23:02:05.417Z,3.57
2018-11-28T23:04:32.768Z,4.60
2018-11-28T23:07:00.315Z,4.80
2018-11-28T23:09:27.784Z,4.27
2018-11-28T23:11:55.209Z,7.70
2018-11-28T23:14:23.707Z,3.80
2018-11-28T23:16:51.064Z,5.03
2018-11-28T23:19:18.425Z,3.27
2018-11-28T23:21:50.002Z,5.27
2018-11-28T23:24:13.845Z,3.43
2018-11-28T23:26:41.116Z,4.23
2018-11-28T23:29:08.692Z,3.37
2018-11-28T23:31:36.043Z,3.67
2018-11-28T23:34:03.439Z,3.23
2018-11-28T23:36:30.739Z,6.13
2018-11-28T23:38:58.429Z,4.13
2018-11-28T23:41:25.692Z,3.83
2018-11-28T23:43:53.140Z,3.80
2018-11-28T23:46:20.434Z,2.87
2018-11-28T23:48:48.003Z,5.03
2018-11-28T23:51:15.426Z,4.70
2018-11-28T23:53:43.340Z,3.47
2018-11-28T23:56:10.708Z,5.10
2018-11-28T23:58:38.154Z,3.20
